sensor_id;sensor_type;location;lat;lon;timestamp;pressure;altitude;pressure_sealevel;temperature;humidity
929;BME280;451;47.988;7.842;2024-01-07T00:08:57;97884.97;;;5.03;100.00
929;BME280;451;47.988;7.842;2024-01-07T00:18:00;97887.63;;;4.94;100.00
929;BME280;451;47.988;7.842;2024-01-07T00:27:04;97893.13;;;5.08;100.00
929;BME280;451;47.988;7.842;2024-01-07T00:36:09;97890.59;;;4.81;100.00
929;BME280;451;47.988;7.842;2024-01-07T00:45:14;97891.00;;;4.86;100.00
929;BME280;451;47.988;7.842;2024-01-07T00:54:17;97889.44;;;4.93;100.00
929;BME280;451;47.988;7.842;2024-01-07T01:03:21;97903.84;;;4.87;100.00
929;BME280;451;47.988;7.842;2024-01-07T01:12:25;97899.00;;;4.75;100.00
929;BME280;451;47.988;7.842;2024-01-07T01:21:29;97911.81;;;4.86;100.00
929;BME280;451;47.988;7.842;2024-01-07T01:30:33;97914.25;;;4.70;100.00
929;BME280;451;47.988;7.842;2024-01-07T01:39:40;97917.09;;;4.76;100.00
929;BME280;451;47.988;7.842;2024-01-07T01:48:43;97904.44;;;4.81;100.00
929;BME280;451;47.988;7.842;2024-01-07T01:57:48;97914.03;;;4.81;100.00
929;BME280;451;47.988;7.842;2024-01-07T02:06:52;97909.72;;;4.72;100.00
929;BME280;451;47.988;7.842;2024-01-07T02:15:57;97926.91;;;4.37;100.00
929;BME280;451;47.988;7.842;2024-01-07T02:25:04;97930.75;;;4.33;100.00
929;BME280;451;47.988;7.842;2024-01-07T02:34:09;97938.31;;;4.27;100.00
929;BME280;451;47.988;7.842;2024-01-07T02:43:13;97931.63;;;4.24;100.00
929;BME280;451;47.988;7.842;2024-01-07T02:52:16;97930.56;;;4.17;100.00
929;BME280;451;47.988;7.842;2024-01-07T03:01:22;97932.13;;;4.00;100.00
929;BME280;451;47.988;7.842;2024-01-07T03:10:26;97935.09;;;4.15;100.00
929;BME280;451;47.988;7.842;2024-01-07T03:19:30;97913.56;;;3.86;100.00
929;BME280;451;47.988;7.842;2024-01-07T03:28:33;97941.88;;;3.89;100.00
929;BME280;451;47.988;7.842;2024-01-07T03:37:38;97930.41;;;3.82;100.00
929;BME280;451;47.988;7.842;2024-01-07T03:46:41;97958.44;;;3.88;100.00
929;BME280;451;47.988;7.842;2024-01-07T03:55:45;97969.78;;;3.96;100.00
929;BME280;451;47.988;7.842;2024-01-07T04:04:48;97965.56;;;3.86;100.00
929;BME280;451;47.988;7.842;2024-01-07T04:13:52;97964.66;;;3.68;100.00
929;BME280;451;47.988;7.842;2024-01-07T04:22:55;97970.66;;;3.68;100.00
929;BME280;451;47.988;7.842;2024-01-07T04:32:00;97981.03;;;3.78;100.00
929;BME280;451;47.988;7.842;2024-01-07T04:41:03;97973.09;;;3.70;100.00
929;BME280;451;47.988;7.842;2024-01-07T04:50:10;97979.94;;;3.71;100.00
929;BME280;451;47.988;7.842;2024-01-07T04:59:13;97995.00;;;3.86;100.00
929;BME280;451;47.988;7.842;2024-01-07T05:08:17;97994.38;;;4.02;100.00
929;BME280;451;47.988;7.842;2024-01-07T05:17:20;98002.91;;;3.85;100.00
929;BME280;451;47.988;7.842;2024-01-07T05:26:24;97990.75;;;3.76;100.00
929;BME280;451;47.988;7.842;2024-01-07T05:35:27;98005.69;;;3.74;100.00
929;BME280;451;47.988;7.842;2024-01-07T05:44:32;98020.84;;;3.69;100.00
929;BME280;451;47.988;7.842;2024-01-07T05:53:35;98011.97;;;3.61;100.00
929;BME280;451;47.988;7.842;2024-01-07T06:02:39;98024.81;;;3.63;100.00
929;BME280;451;47.988;7.842;2024-01-07T06:11:42;98035.50;;;3.60;100.00
929;BME280;451;47.988;7.842;2024-01-07T06:20:47;98038.53;;;3.55;100.00
929;BME280;451;47.988;7.842;2024-01-07T06:29:50;98040.97;;;3.57;100.00
929;BME280;451;47.988;7.842;2024-01-07T06:38:54;98050.28;;;3.59;100.00
929;BME280;451;47.988;7.842;2024-01-07T06:47:59;98046.16;;;3.47;100.00
929;BME280;451;47.988;7.842;2024-01-07T06:57:04;98061.06;;;3.45;100.00
929;BME280;451;47.988;7.842;2024-01-07T07:06:07;98065.56;;;3.62;100.00
929;BME280;451;47.988;7.842;2024-01-07T07:15:12;98071.63;;;3.73;100.00
929;BME280;451;47.988;7.842;2024-01-07T07:24:15;98082.69;;;3.55;100.00
929;BME280;451;47.988;7.842;2024-01-07T07:33:19;98088.56;;;3.57;100.00
929;BME280;451;47.988;7.842;2024-01-07T07:42:22;98095.69;;;3.55;100.00
929;BME280;451;47.988;7.842;2024-01-07T07:51:26;98115.09;;;3.71;100.00
929;BME280;451;47.988;7.842;2024-01-07T08:00:30;98113.47;;;3.70;100.00
929;BME280;451;47.988;7.842;2024-01-07T08:09:34;98117.41;;;3.64;100.00
929;BME280;451;47.988;7.842;2024-01-07T08:18:38;98134.81;;;3.83;100.00
929;BME280;451;47.988;7.842;2024-01-07T08:27:43;98137.53;;;3.81;100.00
929;BME280;451;47.988;7.842;2024-01-07T08:36:47;98131.25;;;3.84;100.00
929;BME280;451;47.988;7.842;2024-01-07T08:45:52;98137.28;;;3.75;100.00
929;BME280;451;47.988;7.842;2024-01-07T08:54:55;98160.56;;;3.86;100.00
929;BME280;451;47.988;7.842;2024-01-07T09:03:59;98162.72;;;3.71;100.00
929;BME280;451;47.988;7.842;2024-01-07T09:13:02;98150.78;;;3.69;100.00
929;BME280;451;47.988;7.842;2024-01-07T09:22:07;98179.53;;;3.77;100.00
929;BME280;451;47.988;7.842;2024-01-07T09:31:10;98187.94;;;3.99;100.00
929;BME280;451;47.988;7.842;2024-01-07T09:40:17;98193.66;;;3.84;100.00
929;BME280;451;47.988;7.842;2024-01-07T09:49:21;98200.38;;;3.86;100.00
929;BME280;451;47.988;7.842;2024-01-07T09:58:25;98190.94;;;3.85;100.00
929;BME280;451;47.988;7.842;2024-01-07T10:07:28;98194.47;;;3.94;100.00
929;BME280;451;47.988;7.842;2024-01-07T10:16:33;98184.63;;;3.88;100.00
929;BME280;451;47.988;7.842;2024-01-07T10:25:36;98194.34;;;3.95;100.00
929;BME280;451;47.988;7.842;2024-01-07T10:34:44;98189.81;;;3.88;100.00
929;BME280;451;47.988;7.842;2024-01-07T10:43:49;98189.56;;;4.00;100.00
929;BME280;451;47.988;7.842;2024-01-07T10:52:57;98199.97;;;3.91;100.00
929;BME280;451;47.988;7.842;2024-01-07T11:02:07;98188.72;;;4.00;100.00
929;BME280;451;47.988;7.842;2024-01-07T11:11:14;98179.97;;;4.01;100.00
929;BME280;451;47.988;7.842;2024-01-07T11:20:20;98174.25;;;3.97;100.00
929;BME280;451;47.988;7.842;2024-01-07T11:29:25;98170.97;;;4.24;100.00
929;BME280;451;47.988;7.842;2024-01-07T11:38:28;98178.22;;;4.11;100.00
929;BME280;451;47.988;7.842;2024-01-07T11:47:33;98178.06;;;4.13;100.00
929;BME280;451;47.988;7.842;2024-01-07T11:56:36;98164.78;;;4.16;100.00
929;BME280;451;47.988;7.842;2024-01-07T12:05:41;98162.75;;;4.29;100.00
929;BME280;451;47.988;7.842;2024-01-07T12:14:44;98167.91;;;4.38;100.00
929;BME280;451;47.988;7.842;2024-01-07T12:23:49;98173.09;;;4.58;100.00
929;BME280;451;47.988;7.842;2024-01-07T12:32:54;98178.56;;;4.64;100.00
929;BME280;451;47.988;7.842;2024-01-07T12:41:59;98169.84;;;4.56;100.00
929;BME280;451;47.988;7.842;2024-01-07T12:51:02;98177.50;;;4.47;100.00
929;BME280;451;47.988;7.842;2024-01-07T13:00:08;98178.84;;;4.52;100.00
929;BME280;451;47.988;7.842;2024-01-07T13:09:11;98180.09;;;4.47;100.00
929;BME280;451;47.988;7.842;2024-01-07T13:18:16;98175.59;;;4.40;100.00
929;BME280;451;47.988;7.842;2024-01-07T13:27:19;98192.03;;;4.40;100.00
929;BME280;451;47.988;7.842;2024-01-07T13:36:25;98190.13;;;4.23;100.00
929;BME280;451;47.988;7.842;2024-01-07T13:45:28;98196.28;;;4.22;100.00
929;BME280;451;47.988;7.842;2024-01-07T13:54:33;98209.53;;;4.00;100.00
929;BME280;451;47.988;7.842;2024-01-07T14:03:36;98212.81;;;3.83;100.00
929;BME280;451;47.988;7.842;2024-01-07T14:12:40;98224.44;;;3.79;100.00
929;BME280;451;47.988;7.842;2024-01-07T14:21:44;98215.41;;;3.73;100.00
929;BME280;451;47.988;7.842;2024-01-07T14:30:49;98244.22;;;3.60;100.00
929;BME280;451;47.988;7.842;2024-01-07T14:39:52;98224.50;;;3.48;100.00
929;BME280;451;47.988;7.842;2024-01-07T14:48:56;98253.75;;;3.50;100.00
929;BME280;451;47.988;7.842;2024-01-07T14:58:00;98263.81;;;3.34;100.00
929;BME280;451;47.988;7.842;2024-01-07T15:07:07;98272.50;;;3.23;100.00
929;BME280;451;47.988;7.842;2024-01-07T15:16:10;98285.25;;;3.06;100.00
929;BME280;451;47.988;7.842;2024-01-07T15:25:15;98277.59;;;3.04;100.00
929;BME280;451;47.988;7.842;2024-01-07T15:34:18;98297.28;;;3.07;100.00
929;BME280;451;47.988;7.842;2024-01-07T15:43:22;98306.19;;;3.14;100.00
929;BME280;451;47.988;7.842;2024-01-07T15:52:25;98314.63;;;3.27;100.00
929;BME280;451;47.988;7.842;2024-01-07T16:01:31;98335.66;;;3.24;100.00
929;BME280;451;47.988;7.842;2024-01-07T16:10:34;98339.22;;;3.23;100.00
929;BME280;451;47.988;7.842;2024-01-07T16:19:38;98359.84;;;3.04;100.00
929;BME280;451;47.988;7.842;2024-01-07T16:28:41;98358.00;;;2.95;100.00
929;BME280;451;47.988;7.842;2024-01-07T16:37:48;98381.13;;;2.98;100.00
929;BME280;451;47.988;7.842;2024-01-07T16:46:51;98380.03;;;2.79;100.00
929;BME280;451;47.988;7.842;2024-01-07T16:55:56;98391.31;;;2.47;100.00
929;BME280;451;47.988;7.842;2024-01-07T17:04:59;98421.41;;;2.27;100.00
929;BME280;451;47.988;7.842;2024-01-07T17:14:04;98415.97;;;2.19;100.00
929;BME280;451;47.988;7.842;2024-01-07T17:23:07;98432.97;;;2.00;100.00
929;BME280;451;47.988;7.842;2024-01-07T17:32:12;98434.59;;;2.13;100.00
929;BME280;451;47.988;7.842;2024-01-07T17:41:17;98440.03;;;1.87;100.00
929;BME280;451;47.988;7.842;2024-01-07T17:50:21;98453.84;;;1.99;100.00
929;BME280;451;47.988;7.842;2024-01-07T17:59:24;98446.84;;;1.77;100.00
929;BME280;451;47.988;7.842;2024-01-07T18:08:29;98428.44;;;1.58;100.00
929;BME280;451;47.988;7.842;2024-01-07T18:17:32;98450.81;;;1.59;100.00
929;BME280;451;47.988;7.842;2024-01-07T18:26:37;98477.91;;;1.66;100.00
929;BME280;451;47.988;7.842;2024-01-07T18:35:41;98477.00;;;1.78;100.00
929;BME280;451;47.988;7.842;2024-01-07T18:44:45;98489.38;;;1.75;100.00
929;BME280;451;47.988;7.842;2024-01-07T18:53:48;98497.50;;;1.81;100.00
929;BME280;451;47.988;7.842;2024-01-07T19:02:53;98505.06;;;1.95;100.00
929;BME280;451;47.988;7.842;2024-01-07T19:11:56;98486.53;;;1.78;100.00
929;BME280;451;47.988;7.842;2024-01-07T19:21:02;98529.09;;;1.97;100.00
929;BME280;451;47.988;7.842;2024-01-07T19:30:12;98504.69;;;1.78;100.00
929;BME280;451;47.988;7.842;2024-01-07T19:39:16;98544.13;;;1.81;100.00
929;BME280;451;47.988;7.842;2024-01-07T19:48:19;98554.19;;;1.86;100.00
929;BME280;451;47.988;7.842;2024-01-07T19:57:24;98557.22;;;1.80;100.00
929;BME280;451;47.988;7.842;2024-01-07T20:06:27;98549.03;;;1.38;100.00
929;BME280;451;47.988;7.842;2024-01-07T20:15:32;98567.22;;;1.26;100.00
929;BME280;451;47.988;7.842;2024-01-07T20:24:37;98591.16;;;1.29;100.00
929;BME280;451;47.988;7.842;2024-01-07T20:33:43;98580.94;;;1.39;100.00
929;BME280;451;47.988;7.842;2024-01-07T20:42:46;98576.03;;;1.47;100.00
929;BME280;451;47.988;7.842;2024-01-07T20:51:50;98597.34;;;1.27;100.00
929;BME280;451;47.988;7.842;2024-01-07T21:00:53;98599.28;;;1.12;100.00
929;BME280;451;47.988;7.842;2024-01-07T21:09:58;98599.22;;;0.88;100.00
929;BME280;451;47.988;7.842;2024-01-07T21:19:01;98603.16;;;0.94;100.00
929;BME280;451;47.988;7.842;2024-01-07T21:28:06;98591.28;;;0.66;100.00
929;BME280;451;47.988;7.842;2024-01-07T21:37:09;98611.47;;;0.61;100.00
929;BME280;451;47.988;7.842;2024-01-07T21:46:13;98607.31;;;0.46;100.00
929;BME280;451;47.988;7.842;2024-01-07T21:55:18;98629.25;;;0.53;100.00
929;BME280;451;47.988;7.842;2024-01-07T22:04:23;98604.03;;;0.31;100.00
929;BME280;451;47.988;7.842;2024-01-07T22:13:26;98641.25;;;0.54;100.00
929;BME280;451;47.988;7.842;2024-01-07T22:22:31;98640.34;;;0.55;100.00
929;BME280;451;47.988;7.842;2024-01-07T22:31:34;98640.84;;;0.34;100.00
929;BME280;451;47.988;7.842;2024-01-07T22:40:38;98653.94;;;0.31;100.00
929;BME280;451;47.988;7.842;2024-01-07T22:49:42;98665.84;;;0.21;100.00
929;BME280;451;47.988;7.842;2024-01-07T22:58:46;98669.13;;;0.11;100.00
929;BME280;451;47.988;7.842;2024-01-07T23:07:49;98677.22;;;0.31;100.00
929;BME280;451;47.988;7.842;2024-01-07T23:16:54;98677.50;;;0.14;100.00
929;BME280;451;47.988;7.842;2024-01-07T23:25:57;98682.16;;;0.09;100.00
929;BME280;451;47.988;7.842;2024-01-07T23:35:01;98686.25;;;-0.01;100.00
929;BME280;451;47.988;7.842;2024-01-07T23:44:05;98679.44;;;-0.02;100.00
929;BME280;451;47.988;7.842;2024-01-07T23:53:10;98673.81;;;0.18;100.00
